createdAt,value
2024-03-07T00:01:50.670Z,3725.5
2024-03-07T00:07:26.124Z,3727.2
2024-03-07T00:13:02.150Z,3729.6
2024-03-07T00:18:38.531Z,3728
2024-03-07T00:24:13.830Z,3726.9
2024-03-07T00:29:50.837Z,3726.4
2024-03-07T00:35:26.879Z,3727.4
2024-03-07T00:41:03.219Z,3725
2024-03-07T00:46:38.840Z,3724.2
2024-03-07T00:52:14.070Z,3724.7
2024-03-07T00:57:49.216Z,3723.5
2024-03-07T01:03:25.057Z,3723.7
2024-03-07T01:09:00.748Z,3723.2
2024-03-07T01:14:36.798Z,3723.4
2024-03-07T01:20:14.135Z,3723.5
2024-03-07T01:25:52.806Z,3722
2024-03-07T01:31:27.964Z,3722.4
2024-03-07T01:37:10.647Z,3723.5
2024-03-07T01:42:46.365Z,3724
2024-03-07T01:48:21.951Z,3722.4
2024-03-07T01:53:58.034Z,3721.2
2024-03-07T01:59:33.892Z,3724.9
2024-03-07T02:05:09.376Z,3722.2
2024-03-07T02:10:46.143Z,3721.7
2024-03-07T02:16:22.044Z,3721.2
2024-03-07T02:21:57.633Z,3721.7
2024-03-07T02:27:34.401Z,3721.3
2024-03-07T02:33:11.953Z,3722.7
2024-03-07T02:38:48.357Z,3720.8
2024-03-07T02:44:25.422Z,3721.2
2024-03-07T02:50:00.795Z,3722
2024-03-07T02:55:36.428Z,3719.3
2024-03-07T03:01:13.244Z,3720.8
2024-03-07T03:06:48.683Z,3721.9
2024-03-07T03:12:23.871Z,3720.2
2024-03-07T03:18:01.759Z,3721
2024-03-07T03:23:37.755Z,3719.5
2024-03-07T03:29:14.508Z,3718.7
2024-03-07T03:34:50.528Z,3719.7
2024-03-07T03:40:26.986Z,3720.5
2024-03-07T03:46:02.774Z,3719.3
2024-03-07T03:51:38.481Z,3717.7
2024-03-07T03:57:13.737Z,3719.2
2024-03-07T04:02:52.499Z,3717
2024-03-07T04:08:29.699Z,3717
2024-03-07T04:14:05.108Z,3719
2024-03-07T04:19:40.576Z,3719
2024-03-07T04:25:17.132Z,3719.3
2024-03-07T04:30:52.793Z,3719.3
2024-03-07T04:36:28.603Z,3718
2024-03-07T04:42:05.244Z,3718.3
2024-03-07T04:47:41.351Z,3717.8
2024-03-07T04:53:17.749Z,3719.3
2024-03-07T04:58:54.058Z,3716.2
2024-03-07T05:04:29.985Z,3718.2
2024-03-07T05:10:05.744Z,3717.2
2024-03-07T05:15:43.337Z,3717.8
2024-03-07T05:21:19.650Z,3718
2024-03-07T05:26:56.667Z,3718
2024-03-07T05:32:34.839Z,3717.7
2024-03-07T05:38:13.224Z,3717.3
2024-03-07T05:43:48.886Z,3719.2
2024-03-07T05:49:24.706Z,3718.8
2024-03-07T05:55:01.047Z,3715.3
2024-03-07T06:00:37.401Z,3717.5
2024-03-07T06:06:13.183Z,3717.3
2024-03-07T06:11:49.357Z,3717.8
2024-03-07T06:17:26.681Z,3718
2024-03-07T06:23:02.882Z,3716.8
2024-03-07T06:28:38.680Z,3714.5
2024-03-07T06:34:14.374Z,3717.7
2024-03-07T06:39:51.165Z,3713.3
2024-03-07T06:45:26.434Z,3712.5
2024-03-07T06:51:02.435Z,3714.5
2024-03-07T06:56:39.455Z,3715.2
2024-03-07T07:02:15.223Z,3714
2024-03-07T07:07:50.254Z,3713.6
2024-03-07T07:13:26.082Z,3713.8
2024-03-07T07:19:01.570Z,3717
2024-03-07T07:24:37.470Z,3717.7
2024-03-07T07:30:13.625Z,3713.1
2024-03-07T07:35:49.357Z,3714.1
2024-03-07T07:41:25.440Z,3710.1
2024-03-07T07:47:01.950Z,3713
2024-03-07T07:52:37.888Z,3713.5
2024-03-07T07:58:13.671Z,3714
2024-03-07T08:03:50.378Z,3712.1
2024-03-07T08:09:25.816Z,3713.8
2024-03-07T08:15:01.917Z,3715.7
2024-03-07T08:20:39.410Z,3717.8
2024-03-07T08:26:15.817Z,3714
2024-03-07T08:31:52.099Z,3716.8
2024-03-07T08:37:28.443Z,3714.8
2024-03-07T08:43:04.874Z,3716
2024-03-07T08:48:42.492Z,3718.5
2024-03-07T08:54:18.819Z,3718.3
2024-03-07T08:59:56.217Z,3718.5
2024-03-07T09:05:33.531Z,3717.2
2024-03-07T09:11:10.302Z,3720.2
2024-03-07T09:16:45.834Z,3719.7
2024-03-07T09:22:21.221Z,3721.3
2024-03-07T09:27:58.648Z,3721.5
2024-03-07T09:33:36.134Z,3721
2024-03-07T09:39:12.382Z,3720.3
2024-03-07T09:44:49.444Z,3720
2024-03-07T09:50:27.391Z,3721.3
2024-03-07T09:56:02.567Z,3719.8
2024-03-07T10:01:38.584Z,3722.7
2024-03-07T10:07:13.986Z,3720.7
2024-03-07T10:12:49.993Z,3721.3
2024-03-07T10:18:26.898Z,3720.8
2024-03-07T10:24:03.634Z,3721
2024-03-07T10:29:39.463Z,3720
2024-03-07T10:35:15.998Z,3723.4
2024-03-07T10:40:51.648Z,3720.7
2024-03-07T10:46:27.086Z,3720.5
2024-03-07T10:52:02.961Z,3719.8
2024-03-07T10:57:40.915Z,3721
2024-03-07T11:03:17.170Z,3722.5
2024-03-07T11:08:54.742Z,3721.5
2024-03-07T11:14:30.377Z,3720.2
2024-03-07T11:20:06.613Z,3722
2024-03-07T11:25:42.918Z,3723.2
2024-03-07T11:31:18.954Z,3722
2024-03-07T11:36:55.201Z,3721.7
2024-03-07T11:42:32.408Z,3722.2
2024-03-07T11:48:09.782Z,3720.7
2024-03-07T11:53:46.254Z,3721.7
2024-03-07T11:59:23.163Z,3720.8
2024-03-07T12:04:58.879Z,3720.3
2024-03-07T12:10:34.499Z,3721.5
2024-03-07T12:16:11.412Z,3719.3
2024-03-07T12:21:47.941Z,3722.4
2024-03-07T12:27:23.122Z,3720.5
2024-03-07T12:33:00.997Z,3721.3
2024-03-07T12:38:39.488Z,3720.2
2024-03-07T12:44:15.777Z,3718.8
2024-03-07T12:49:52.069Z,3721.2
2024-03-07T12:55:27.585Z,3723.2
2024-03-07T13:01:03.851Z,3718
2024-03-07T13:06:40.278Z,3721.8
2024-03-07T13:12:17.380Z,3721.7
2024-03-07T13:17:54.560Z,3721
2024-03-07T13:23:31.419Z,3720.7
2024-03-07T13:29:07.108Z,3721.7
2024-03-07T13:34:42.584Z,3718.7
2024-03-07T13:40:18.794Z,3720.8
2024-03-07T13:45:55.038Z,3721
2024-03-07T13:51:30.638Z,3720.5
2024-03-07T13:57:08.364Z,3720.8
2024-03-07T14:02:44.236Z,3721.3
2024-03-07T14:08:20.563Z,3719.7
2024-03-07T14:13:56.718Z,3720.2
2024-03-07T14:19:32.070Z,3719.7
2024-03-07T14:25:09.049Z,3718.2
2024-03-07T14:30:45.591Z,3720.7
2024-03-07T14:36:21.339Z,3717.8
2024-03-07T14:41:57.448Z,3720
2024-03-07T14:47:34.541Z,3720.8
2024-03-07T14:53:10.820Z,3720.2
2024-03-07T14:58:46.672Z,3719.5
2024-03-07T15:04:22.234Z,3719.5
2024-03-07T15:09:58.085Z,3719.7
2024-03-07T15:15:34.388Z,3717.8
2024-03-07T15:21:10.876Z,3719.8
2024-03-07T15:26:50.726Z,3719.5
2024-03-07T15:32:27.237Z,3719.3
2024-03-07T15:38:04.224Z,3718.7
2024-03-07T15:43:39.968Z,3717.2
2024-03-07T15:49:15.727Z,3717.5
2024-03-07T15:54:51.708Z,3718.3
2024-03-07T16:00:27.414Z,3718.5
2024-03-07T16:06:04.001Z,3718.2
2024-03-07T16:11:41.921Z,3718.8
2024-03-07T16:17:18.083Z,3719.3
2024-03-07T16:22:53.691Z,3719.3
2024-03-07T16:28:30.183Z,3719.8
2024-03-07T16:34:06.630Z,3716.2
2024-03-07T16:39:42.537Z,3716.3
2024-03-07T16:45:19.382Z,3718
2024-03-07T16:50:55.704Z,3717.8
2024-03-07T16:56:32.603Z,3716.8
2024-03-07T17:02:09.346Z,3717
2024-03-07T17:07:48.457Z,3716.3
2024-03-07T17:13:24.961Z,3717.5
2024-03-07T17:19:02.457Z,3716.3
2024-03-07T17:24:39.223Z,3717
2024-03-07T17:30:18.666Z,3717.8
2024-03-07T17:35:56.290Z,3717.7
2024-03-07T17:41:32.839Z,3714.6
2024-03-07T17:47:08.820Z,3715.3
2024-03-07T17:52:45.249Z,3715.5
2024-03-07T17:58:20.908Z,3716.3
2024-03-07T18:03:56.646Z,3716.5
2024-03-07T18:09:35.151Z,3716.7
2024-03-07T18:15:24.434Z,3714.6
2024-03-07T18:21:00.496Z,3716
2024-03-07T18:26:36.630Z,3716.2
2024-03-07T18:32:12.427Z,3712.6
2024-03-07T18:37:47.799Z,3714.6
2024-03-07T18:43:23.754Z,3716
2024-03-07T18:48:59.633Z,3713.3
2024-03-07T18:54:35.553Z,3714.6
2024-03-07T19:00:12.741Z,3713.1
2024-03-07T19:05:50.472Z,3714.5
2024-03-07T19:11:28.199Z,3713.5
2024-03-07T19:17:04.531Z,3714.5
2024-03-07T19:22:39.534Z,3712.8
2024-03-07T19:28:16.444Z,3714.8
2024-03-07T19:33:54.213Z,3714.1
2024-03-07T19:39:30.748Z,3714.8
2024-03-07T19:45:07.368Z,3712.6
2024-03-07T19:50:45.691Z,3715
2024-03-07T19:56:21.378Z,3714.6
2024-03-07T20:01:56.931Z,3713.3
2024-03-07T20:07:33.187Z,3714.1
2024-03-07T20:13:09.118Z,3710.8
2024-03-07T20:18:45.992Z,3714.6
2024-03-07T20:24:22.768Z,3712
2024-03-07T20:29:58.548Z,3712.3
2024-03-07T20:35:34.913Z,3714.1
2024-03-07T20:41:11.097Z,3712.5
2024-03-07T20:46:46.518Z,3712.6
2024-03-07T20:52:21.880Z,3714
2024-03-07T20:58:00.398Z,3715.3
2024-03-07T21:03:36.821Z,3711.3
2024-03-07T21:09:12.937Z,3713
2024-03-07T21:14:50.070Z,3711.3
2024-03-07T21:20:26.460Z,3712
2024-03-07T21:26:02.325Z,3710.3
2024-03-07T21:31:38.008Z,3708.6
2024-03-07T21:37:13.912Z,3708.3
2024-03-07T21:42:50.296Z,3713
2024-03-07T21:48:27.870Z,3709.6
2024-03-07T21:54:04.772Z,3710.6
2024-03-07T21:59:42.012Z,3707.9
2024-03-07T22:05:19.869Z,3710.5
2024-03-07T22:10:57.188Z,3707.9
2024-03-07T22:16:34.474Z,3711
2024-03-07T22:22:12.280Z,3709.8
2024-03-07T22:27:49.555Z,3709.8
2024-03-07T22:33:26.342Z,3706.9
2024-03-07T22:39:04.003Z,3708.1
2024-03-07T22:44:40.889Z,3711.1
2024-03-07T22:50:33.689Z,3709.5
2024-03-07T22:56:12.176Z,3707.4
2024-03-07T23:01:52.838Z,3707.9
2024-03-07T23:07:29.158Z,3708.4
2024-03-07T23:13:07.443Z,3707.9
2024-03-07T23:18:45.762Z,3710
2024-03-07T23:24:22.590Z,3705.9
2024-03-07T23:30:01.382Z,3708.3
2024-03-07T23:35:40.011Z,3707.3
2024-03-07T23:41:16.168Z,3704.4
2024-03-07T23:46:52.855Z,3707.3
2024-03-07T23:52:29.372Z,3705.4
2024-03-07T23:58:05.268Z,3710.6
